TUI8EA LGIR-EDDL
Flight info
| Callsign | TUI8EA |
|---|---|
| Flight time | N/A |
| Altitude | 38000 |
| Route | EPALO M749 DIRMI UL613 YNN UL604 DIMIS DCT RETRA DCT PETOV DCT LAMSI L604 RODIS DCT TESDU DCT AMETU T852 TINSA T854 DOMUX DOMUX1A |
| Aircraft | B38M/M-SDE1FGHILORVWXY/HB1 |
Departure
| Time | 2026-05-07 10:10 |
|---|---|
| Airport | Heraklion International Nikos Kazantzakis Airport (LGIR) |
Arrival
| Time | N/A |
|---|---|
| Airport | Düsseldorf Airport (EDDL) |
| Time | Latitude | Longitude | Altitude | Speed | Heading |
|---|---|---|---|---|---|
| 2026-05-07 09:46 | 35.33821 | 25.17415 | 93 ft | 0 kts | 317° |
| 2026-05-07 09:47 | 35.33811 | 25.17542 | 95 ft | 0 kts | 316° |
| 2026-05-07 10:06 | 35.33815 | 25.17536 | 93 ft | 3 kts | 316° |
| 2026-05-07 10:07 | 35.33868 | 25.17504 | 93 ft | 14 kts | 352° |
| 2026-05-07 10:07 | 35.33918 | 25.17404 | 93 ft | 17 kts | 275° |
| 2026-05-07 10:07 | 35.33929 | 25.17253 | 93 ft | 19 kts | 275° |
| 2026-05-07 10:07 | 35.33940 | 25.17083 | 92 ft | 21 kts | 274° |
| 2026-05-07 10:08 | 35.33953 | 25.16896 | 93 ft | 23 kts | 275° |
| 2026-05-07 10:08 | 35.33997 | 25.16705 | 94 ft | 24 kts | 305° |
| 2026-05-07 10:08 | 35.34076 | 25.16517 | 94 ft | 26 kts | 280° |
| 2026-05-07 10:08 | 35.34094 | 25.16295 | 94 ft | 25 kts | 275° |
| 2026-05-07 10:09 | 35.34087 | 25.16154 | 94 ft | 10 kts | 288° |
| 2026-05-07 10:09 | 35.34115 | 25.16173 | 95 ft | 7 kts | 117° |
| 2026-05-07 10:09 | 35.34100 | 25.16226 | 96 ft | 0 kts | 94° |
| 2026-05-07 10:10 | 35.34089 | 25.16388 | 94 ft | 57 kts | 94° |
| 2026-05-07 10:10 | 35.34031 | 25.17211 | 94 ft | 133 kts | 95° |
| 2026-05-07 10:10 | 35.33936 | 25.18562 | 328 ft | 174 kts | 92° |
| 2026-05-07 10:10 | 35.33838 | 25.20068 | 1232 ft | 178 kts | 92° |
| 2026-05-07 10:11 | 35.34186 | 25.21531 | 1952 ft | 195 kts | 53° |
| 2026-05-07 10:11 | 35.35334 | 25.22536 | 2512 ft | 215 kts | 18° |
| 2026-05-07 10:11 | 35.36839 | 25.22690 | 3213 ft | 227 kts | 349° |
| 2026-05-07 10:11 | 35.38243 | 25.21840 | 4110 ft | 230 kts | 311° |
| 2026-05-07 10:12 | 35.39028 | 25.20138 | 5028 ft | 234 kts | 290° |
| 2026-05-07 10:12 | 35.39616 | 25.18232 | 5923 ft | 242 kts | 290° |
| 2026-05-07 10:12 | 35.40448 | 25.16365 | 6647 ft | 260 kts | 310° |
| 2026-05-07 10:12 | 35.41848 | 25.14929 | 7523 ft | 266 kts | 330° |
| 2026-05-07 10:13 | 35.43599 | 25.14058 | 8309 ft | 278 kts | 341° |
| 2026-05-07 10:13 | 35.45439 | 25.13288 | 9342 ft | 279 kts | 340° |
| 2026-05-07 10:13 | 35.47279 | 25.12475 | 10291 ft | 283 kts | 339° |
| 2026-05-07 10:13 | 35.49177 | 25.11610 | 10883 ft | 300 kts | 339° |
| 2026-05-07 10:14 | 35.51190 | 25.10672 | 11363 ft | 317 kts | 339° |
| 2026-05-07 10:14 | 35.53254 | 25.09700 | 12032 ft | 326 kts | 339° |
| 2026-05-07 10:14 | 35.55400 | 25.08687 | 12943 ft | 327 kts | 339° |
| 2026-05-07 10:14 | 35.57516 | 25.07686 | 13748 ft | 331 kts | 339° |
| 2026-05-07 10:15 | 35.59675 | 25.06663 | 14499 ft | 335 kts | 339° |
| 2026-05-07 10:15 | 35.61862 | 25.05626 | 15202 ft | 339 kts | 338° |
| 2026-05-07 10:15 | 35.64075 | 25.04577 | 15893 ft | 343 kts | 338° |
| 2026-05-07 10:15 | 35.66311 | 25.03516 | 16578 ft | 347 kts | 338° |
| 2026-05-07 10:16 | 35.68579 | 25.02440 | 17243 ft | 351 kts | 338° |
| 2026-05-07 10:16 | 35.70867 | 25.01354 | 17904 ft | 354 kts | 338° |
| 2026-05-07 10:16 | 35.73184 | 25.00267 | 18538 ft | 358 kts | 338° |
| 2026-05-07 10:16 | 35.75524 | 24.99168 | 19098 ft | 361 kts | 337° |
| 2026-05-07 10:17 | 35.77879 | 24.98061 | 19679 ft | 363 kts | 337° |
| 2026-05-07 10:17 | 35.80253 | 24.96944 | 20238 ft | 366 kts | 337° |
| 2026-05-07 10:17 | 35.82640 | 24.95821 | 20800 ft | 369 kts | 337° |
| 2026-05-07 10:17 | 35.85045 | 24.94689 | 21375 ft | 371 kts | 337° |
| 2026-05-07 10:18 | 35.87462 | 24.93549 | 21928 ft | 374 kts | 337° |
| 2026-05-07 10:18 | 35.89904 | 24.92398 | 22489 ft | 376 kts | 337° |
| 2026-05-07 10:18 | 35.92361 | 24.91238 | 23050 ft | 379 kts | 337° |
| 2026-05-07 10:18 | 35.94834 | 24.90070 | 23613 ft | 382 kts | 336° |
| 2026-05-07 10:19 | 35.97295 | 24.88907 | 24076 ft | 385 kts | 336° |
| 2026-05-07 10:19 | 35.99836 | 24.87706 | 24545 ft | 387 kts | 336° |
| 2026-05-07 10:19 | 36.02359 | 24.86512 | 25010 ft | 390 kts | 336° |
| 2026-05-07 10:19 | 36.04866 | 24.85325 | 25451 ft | 392 kts | 336° |
| 2026-05-07 10:20 | 36.07428 | 24.84113 | 25894 ft | 395 kts | 336° |
| 2026-05-07 10:20 | 36.10002 | 24.82893 | 26325 ft | 397 kts | 336° |
| 2026-05-07 10:20 | 36.12590 | 24.81667 | 26757 ft | 400 kts | 336° |
| 2026-05-07 10:20 | 36.15198 | 24.80430 | 27184 ft | 402 kts | 336° |
| 2026-05-07 10:21 | 36.17823 | 24.79184 | 27601 ft | 405 kts | 336° |
| 2026-05-07 10:21 | 36.20459 | 24.77933 | 28020 ft | 407 kts | 336° |
| 2026-05-07 10:21 | 36.23116 | 24.76670 | 28422 ft | 410 kts | 336° |
| 2026-05-07 10:21 | 36.25789 | 24.75399 | 28814 ft | 412 kts | 336° |
| 2026-05-07 10:22 | 36.28476 | 24.74120 | 29216 ft | 415 kts | 336° |
| 2026-05-07 10:22 | 36.31184 | 24.72830 | 29602 ft | 417 kts | 335° |
| 2026-05-07 10:22 | 36.33904 | 24.71533 | 29973 ft | 420 kts | 335° |
| 2026-05-07 10:22 | 36.36637 | 24.70230 | 30326 ft | 422 kts | 335° |
| 2026-05-07 10:23 | 36.39387 | 24.68917 | 30667 ft | 424 kts | 335° |
| 2026-05-07 10:23 | 36.42140 | 24.67602 | 31025 ft | 425 kts | 335° |
| 2026-05-07 10:23 | 36.44900 | 24.66282 | 31386 ft | 425 kts | 335° |
| 2026-05-07 10:23 | 36.47667 | 24.64958 | 31741 ft | 427 kts | 335° |
| 2026-05-07 10:24 | 36.50406 | 24.63647 | 32060 ft | 428 kts | 335° |
| 2026-05-07 10:24 | 36.53188 | 24.62314 | 32396 ft | 429 kts | 335° |
| 2026-05-07 10:24 | 36.55974 | 24.60978 | 32778 ft | 429 kts | 335° |
| 2026-05-07 10:24 | 36.58754 | 24.59643 | 33253 ft | 426 kts | 335° |
| 2026-05-07 10:25 | 36.61517 | 24.58316 | 33758 ft | 424 kts | 335° |
| 2026-05-07 10:25 | 36.64257 | 24.56999 | 34239 ft | 421 kts | 335° |
| 2026-05-07 10:25 | 36.66977 | 24.55690 | 34665 ft | 418 kts | 335° |
| 2026-05-07 10:25 | 36.69680 | 24.54389 | 35100 ft | 414 kts | 334° |
| 2026-05-07 10:26 | 36.72365 | 24.53096 | 35546 ft | 411 kts | 334° |
| 2026-05-07 10:26 | 36.74991 | 24.51746 | 35959 ft | 404 kts | 328° |
| 2026-05-07 10:26 | 36.77447 | 24.50166 | 36384 ft | 401 kts | 328° |
| 2026-05-07 10:26 | 36.79931 | 24.48604 | 36743 ft | 398 kts | 328° |
| 2026-05-07 10:27 | 36.82408 | 24.47063 | 37111 ft | 396 kts | 328° |
| 2026-05-07 10:27 | 36.84866 | 24.45543 | 37464 ft | 393 kts | 328° |
| 2026-05-07 10:27 | 36.87316 | 24.44031 | 37803 ft | 391 kts | 328° |
| 2026-05-07 10:27 | 36.89754 | 24.42526 | 38089 ft | 390 kts | 328° |
| 2026-05-07 10:28 | 36.92185 | 24.41026 | 38174 ft | 390 kts | 328° |
| 2026-05-07 10:28 | 36.97025 | 24.38035 | 38156 ft | 387 kts | 328° |
| 2026-05-07 10:29 | 37.01862 | 24.35041 | 38149 ft | 389 kts | 328° |
| 2026-05-07 10:29 | 37.06714 | 24.32035 | 38151 ft | 390 kts | 328° |